Time;durP1;ratioP1;P1;durP2;ratioP2;P2;SDS_P1;SDS_P2;PMS_P1;PMS_P2;Temp;Humidity;BMP_temperature;BMP_pressure;BME280_temperature;BME280_humidity;BME280_pressure;Samples;Min_cycle;Max_cycle;Signal;HPM_P1;HPM_P2
2022/05/06 00:02:10;;;;;;;45.50;30.42;;;;;;;12.37;77.63;102261.31;3587900;40;20067;-64
2022/05/06 00:04:36;;;;;;;43.17;29.63;;;;;;;12.36;77.57;102264.91;3588731;40;20052;-62
2022/05/06 00:07:02;;;;;;;45.17;30.98;;;;;;;12.34;78.05;102265.94;3586218;39;20433;-62
2022/05/06 00:09:28;;;;;;;47.50;30.83;;;;;;;12.31;77.51;102261.59;3586835;40;20048;-64
2022/05/06 00:11:54;;;;;;;44.67;30.95;;;;;;;12.22;77.61;102249.38;3585333;40;20059;-63
2022/05/06 00:14:20;;;;;;;44.92;30.10;;;;;;;12.26;77.72;102264.47;3589118;40;20630;-64
2022/05/06 00:16:46;;;;;;;45.47;30.48;;;;;;;12.25;77.74;102265.44;3588693;40;20072;-64
2022/05/06 00:19:12;;;;;;;46.50;30.08;;;;;;;12.22;78.08;102270.97;3588462;40;20060;-64
2022/05/06 00:21:38;;;;;;;47.30;31.35;;;;;;;12.20;77.55;102278.22;3589727;40;20275;-63
2022/05/06 00:24:04;;;;;;;47.35;30.83;;;;;;;12.17;78.63;102275.66;3586958;40;20205;-62
2022/05/06 00:26:30;;;;;;;48.97;31.67;;;;;;;12.03;78.41;102251.19;3589066;39;20067;-63
2022/05/06 00:28:56;;;;;;;44.90;29.73;;;;;;;12.12;77.86;102264.25;3587060;40;20129;-63
2022/05/06 00:31:21;;;;;;;49.70;29.20;;;;;;;11.97;78.24;102248.75;3589449;40;20677;-64
2022/05/06 00:33:48;;;;;;;52.67;30.35;;;;;;;12.08;78.25;102273.38;3589959;40;20052;-62
2022/05/06 00:36:17;;;;;;;47.85;31.10;;;;;;;12.00;78.42;102262.09;3587906;40;20625;-63
2022/05/06 00:38:42;;;;;;;48.80;31.45;;;;;;;11.97;78.59;102265.81;3591245;40;20056;-63
2022/05/06 00:41:09;;;;;;;47.80;31.50;;;;;;;11.67;78.61;102222.22;3592039;40;20637;-63
2022/05/06 00:43:40;;;;;;;45.95;31.67;;;;;;;11.94;78.46;102273.16;3594312;40;20064;-63
2022/05/06 00:46:13;;;;;;;50.13;30.75;;;;;;;11.87;78.77;102268.97;3590746;40;20052;-63
2022/05/06 00:48:44;;;;;;;46.03;31.33;;;;;;;11.82;78.89;102263.75;3593020;40;20063;-63
2022/05/06 00:51:10;;;;;;;46.40;30.98;;;;;;;11.82;79.54;102267.31;3592303;40;20052;-62
2022/05/06 00:53:36;;;;;;;44.85;30.77;;;;;;;11.83;79.26;102263.69;3590637;40;20061;-63
2022/05/06 00:56:09;;;;;;;47.22;31.17;;;;;;;11.82;78.93;102270.00;3587506;39;20082;-63
2022/05/06 00:58:35;;;;;;;45.58;31.60;;;;;;;11.77;79.09;102263.97;3590419;40;20059;-63
2022/05/06 01:01:04;;;;;;;44.45;30.73;;;;;;;11.77;79.43;102265.78;3586478;40;20268;-63
2022/05/06 01:03:31;;;;;;;50.47;31.65;;;;;;;11.73;79.62;102270.41;3589182;40;20064;-62
2022/05/06 01:05:58;;;;;;;44.67;30.55;;;;;;;11.66;79.48;102266.22;3587795;40;20144;-64
2022/05/06 01:08:23;;;;;;;49.28;31.73;;;;;;;11.59;79.33;102257.53;3579852;40;20071;-65
2022/05/06 01:10:49;;;;;;;46.28;31.38;;;;;;;11.66;79.48;102282.41;3586495;40;20158;-63
2022/05/06 01:13:15;;;;;;;47.53;30.48;;;;;;;11.42;79.40;102241.25;3586429;40;20059;-64
2022/05/06 01:15:41;;;;;;;47.22;30.15;;;;;;;11.60;79.09;102279.97;3588194;40;20046;-61
2022/05/06 01:18:13;;;;;;;45.95;30.00;;;;;;;11.50;79.71;102265.16;3590300;40;20078;-63
2022/05/06 01:20:48;;;;;;;49.22;31.63;;;;;;;11.54;79.52;102277.53;3588273;40;20044;-62
2022/05/06 01:23:14;;;;;;;51.38;31.50;;;;;;;11.50;80.14;102275.91;3586941;40;20062;-63
2022/05/06 01:25:42;;;;;;;43.80;31.40;;;;;;;11.44;80.21;102278.88;3586891;40;20398;-63
2022/05/06 01:28:13;;;;;;;47.40;31.75;;;;;;;11.42;80.42;102278.03;3588810;40;20060;-61
2022/05/06 01:30:44;;;;;;;50.97;32.05;;;;;;;11.42;80.03;102272.66;3588079;40;20060;-62
2022/05/06 01:33:14;;;;;;;50.13;31.50;;;;;;;11.40;80.56;102278.13;3587704;40;20086;-63
2022/05/06 01:35:45;;;;;;;45.45;29.58;;;;;;;11.41;80.25;102273.59;3587284;40;20073;-62
2022/05/06 01:38:23;;;;;;;43.20;28.73;;;;;;;11.41;79.40;102276.31;3586870;40;20130;-63
2022/05/06 01:40:57;;;;;;;45.80;30.05;;;;;;;11.12;79.86;102236.19;3588500;40;20105;-63
2022/05/06 01:43:31;;;;;;;48.60;31.13;;;;;;;11.14;79.87;102247.78;3581301;40;20116;-63
2022/05/06 01:45:56;;;;;;;43.10;31.20;;;;;;;11.30;80.63;102266.88;3578704;40;20056;-62
2022/05/06 01:48:25;;;;;;;49.47;31.65;;;;;;;11.16;80.73;102245.00;3589148;40;20155;-63
2022/05/06 01:50:53;;;;;;;57.88;34.28;;;;;;;11.07;80.72;102235.53;3588301;40;20056;-63
2022/05/06 01:53:19;;;;;;;54.13;33.58;;;;;;;11.24;81.05;102264.44;3588054;40;20067;-65
2022/05/06 01:55:45;;;;;;;50.65;32.70;;;;;;;11.23;80.63;102268.06;3586293;40;20394;-62
2022/05/06 01:58:11;;;;;;;59.25;34.72;;;;;;;11.27;80.34;102277.75;3586051;40;20119;-63
2022/05/06 02:00:37;;;;;;;52.67;33.28;;;;;;;11.22;81.42;102277.06;3588315;40;20044;-65
2022/05/06 02:03:05;;;;;;;61.20;34.67;;;;;;;11.17;81.05;102289.84;3587484;40;20104;-62
2022/05/06 02:05:31;;;;;;;57.83;34.08;;;;;;;11.14;81.37;102284.59;3579061;40;20048;-62
2022/05/06 02:07:57;;;;;;;58.95;33.53;;;;;;;11.07;81.73;102275.03;3586898;40;20310;-63
2022/05/06 02:10:25;;;;;;;67.88;35.50;;;;;;;11.05;81.28;102271.50;3586638;40;20067;-65
2022/05/06 02:12:51;;;;;;;63.08;33.80;;;;;;;10.97;82.23;102258.34;3586738;40;20379;-63
2022/05/06 02:15:19;;;;;;;67.15;32.38;;;;;;;10.98;81.25;102267.31;3576919;40;20044;-63
2022/05/06 02:17:45;;;;;;;58.72;33.97;;;;;;;11.03;82.18;102276.94;3588759;40;20055;-64
2022/05/06 02:20:13;;;;;;;71.80;34.30;;;;;;;10.98;81.74;102267.31;3586965;40;20052;-63
2022/05/06 02:22:42;;;;;;;70.50;34.88;;;;;;;10.98;82.51;102275.41;3585430;40;20064;-62
2022/05/06 02:25:09;;;;;;;62.17;34.42;;;;;;;10.94;81.84;102277.31;3586460;40;20064;-62
2022/05/06 02:27:39;;;;;;;68.10;34.30;;;;;;;10.90;82.75;102279.25;3586233;40;20472;-64
2022/05/06 02:35:36;;;;;;;66.13;33.72;;;;;;;10.82;83.16;102278.69;3586589;40;20059;-63
2022/05/06 02:38:04;;;;;;;59.10;33.60;;;;;;;10.84;82.84;102281.31;3587946;40;20064;-62
2022/05/06 02:40:29;;;;;;;56.97;34.53;;;;;;;10.82;82.34;102284.06;3586614;40;20295;-63
2022/05/06 02:42:55;;;;;;;70.30;36.00;;;;;;;10.88;83.13;102291.03;3586015;40;20059;-62
2022/05/06 02:45:21;;;;;;;62.53;35.85;;;;;;;10.85;83.03;102285.78;3585220;40;20059;-63
2022/05/06 02:47:46;;;;;;;61.75;37.13;;;;;;;10.73;83.69;102273.69;3587628;40;20060;-64
2022/05/06 02:50:12;;;;;;;60.15;35.58;;;;;;;10.76;83.10;102284.31;3588709;40;20367;-63
2022/05/06 02:52:37;;;;;;;65.00;33.78;;;;;;;10.78;83.47;102292.31;3590000;40;20132;-62
2022/05/06 02:55:04;;;;;;;55.50;34.00;;;;;;;10.78;83.17;102303.94;3585463;40;20108;-63
2022/05/06 02:57:30;;;;;;;53.50;33.47;;;;;;;10.69;82.78;102288.19;3586005;40;20059;-64
2022/05/06 02:59:55;;;;;;;65.90;32.17;;;;;;;10.76;83.23;102300.44;3586450;40;20050;-63
2022/05/06 03:02:21;;;;;;;48.58;30.40;;;;;;;10.54;81.95;102262.75;3587663;40;20052;-63
2022/05/06 03:04:47;;;;;;;45.17;29.60;;;;;;;10.61;81.78;102290.28;3585922;40;20314;-64
2022/05/06 03:07:12;;;;;;;50.65;30.45;;;;;;;10.61;82.38;102295.66;3586316;40;20079;-63
2022/05/06 03:09:39;;;;;;;49.08;30.38;;;;;;;10.58;82.48;102306.53;3586142;40;20064;-63
2022/05/06 03:12:06;;;;;;;50.00;31.25;;;;;;;10.58;82.59;102301.16;3587025;40;20052;-62
2022/05/06 03:14:32;;;;;;;47.10;31.13;;;;;;;10.56;82.89;102300.31;3587307;40;20059;-63
2022/05/06 03:16:57;;;;;;;49.63;31.38;;;;;;;10.55;82.79;102287.81;3585295;40;20052;-63
2022/05/06 03:19:23;;;;;;;54.35;30.73;;;;;;;9.77;82.92;102162.66;3586886;40;20063;-63
2022/05/06 03:21:56;;;;;;;55.97;31.92;;;;;;;10.57;83.03;102294.03;3586606;40;20177;-64
2022/05/06 03:24:22;;;;;;;;;;;;;;;10.44;82.96;102280.19;3587577;40;20051;-63
2022/05/06 03:26:48;;;;;;;63.10;29.23;;;;;;;10.51;83.45;102291.56;3587152;40;19956;-63
2022/05/06 03:29:13;;;;;;;57.17;31.30;;;;;;;10.48;83.36;102286.31;3585413;40;20064;-64
2022/05/06 03:31:39;;;;;;;54.33;31.70;;;;;;;10.52;83.72;102290.63;3588291;40;20055;-63
2022/05/06 03:34:06;;;;;;;50.85;30.83;;;;;;;10.52;83.26;102296.88;3586371;40;20052;-63
2022/05/06 03:36:33;;;;;;;58.38;32.83;;;;;;;10.54;84.36;102295.03;3586869;40;20074;-63
2022/05/06 03:39:00;;;;;;;64.30;28.08;;;;;;;10.54;82.76;102295.03;3585862;40;20080;-62
2022/05/06 03:41:25;;;;;;;55.95;28.42;;;;;;;10.52;83.57;102296.00;3584890;40;20052;-63
2022/05/06 03:43:51;;;;;;;52.40;28.42;;;;;;;10.40;83.51;102287.50;3586451;40;20295;-64
2022/05/06 03:46:17;;;;;;;58.30;26.20;;;;;;;10.48;83.15;102305.13;3585091;40;20071;-65
2022/05/06 03:48:43;;;;;;;61.63;24.77;;;;;;;10.41;82.68;102302.66;3588632;40;20048;-63
2022/05/06 03:51:22;;;;;;;54.88;26.35;;;;;;;10.39;84.04;102296.47;3587351;40;20052;-62
2022/05/06 03:53:52;;;;;;;51.95;25.50;;;;;;;10.38;82.95;102289.34;3587803;40;20121;-63
2022/05/06 03:56:19;;;;;;;46.78;25.27;;;;;;;10.36;83.39;102298.41;3587628;40;20116;-63
2022/05/06 03:58:45;;;;;;;51.55;24.85;;;;;;;10.33;83.30;102290.44;3588194;40;20307;-63
2022/05/06 04:01:11;;;;;;;60.53;25.35;;;;;;;10.29;83.91;102284.31;3587936;40;20060;-61
2022/05/06 04:03:41;;;;;;;42.88;25.45;;;;;;;10.28;83.76;102287.94;3587855;40;20068;-64
2022/05/06 04:06:06;;;;;;;50.33;24.52;;;;;;;10.34;83.45;102301.16;3585918;40;20063;-63
2022/05/06 04:08:32;;;;;;;50.22;25.40;;;;;;;10.30;83.82;102286.06;3586332;40;20310;-63
2022/05/06 04:10:59;;;;;;;54.55;27.50;;;;;;;10.31;83.65;102292.34;3587913;40;20044;-64
2022/05/06 04:13:25;;;;;;;50.03;26.73;;;;;;;10.38;84.16;102308.16;3579211;40;20117;-63
2022/05/06 04:15:51;;;;;;;49.70;27.30;;;;;;;10.33;84.51;102295.81;3587554;40;20044;-64
2022/05/06 04:18:17;;;;;;;61.28;27.05;;;;;;;10.41;83.86;102305.38;3586759;40;20283;-62
2022/05/06 04:23:30;;;;;;;72.93;27.08;;;;;;;10.49;84.25;102304.19;3589348;40;20059;-64
2022/05/06 04:26:04;;;;;;;50.45;27.33;;;;;;;10.54;84.29;102305.78;3589751;40;20364;-62
2022/05/06 04:28:31;;;;;;;49.13;25.52;;;;;;;10.53;83.94;102303.13;3588346;40;20064;-63
2022/05/06 04:30:57;;;;;;;47.28;25.67;;;;;;;10.54;83.53;102310.28;3581923;40;20059;-61
2022/05/06 04:33:25;;;;;;;42.42;25.95;;;;;;;10.29;83.85;102273.56;3589202;40;20063;-62
2022/05/06 04:35:51;;;;;;;39.92;26.27;;;;;;;10.53;84.21;102308.50;3588611;40;20085;-61
2022/05/06 04:38:17;;;;;;;53.53;24.20;;;;;;;10.53;83.25;102313.88;3627826;22;20057;-61
2022/05/06 04:40:43;;;;;;;54.22;23.65;;;;;;;10.53;82.75;102311.19;3598133;39;20102;-61
2022/05/06 04:43:10;;;;;;;32.08;23.48;;;;;;;10.40;82.80;102309.00;3598153;39;20059;-62
2022/05/06 04:45:41;;;;;;;49.45;23.92;;;;;;;10.38;83.07;102297.41;3597352;39;20056;-62
2022/05/06 04:48:10;;;;;;;52.53;23.55;;;;;;;10.51;83.36;102322.03;3595744;39;20068;-62
2022/05/06 04:50:38;;;;;;;47.45;24.35;;;;;;;10.51;83.53;102326.53;3595606;39;20051;-63
2022/05/06 04:53:07;;;;;;;40.55;24.35;;;;;;;10.51;83.17;102330.09;3593401;39;20124;-62
2022/05/06 04:55:34;;;;;;;46.38;25.27;;;;;;;10.55;84.26;102330.84;3597378;39;20056;-62
2022/05/06 04:58:00;;;;;;;58.15;25.50;;;;;;;10.56;83.45;102327.22;3599557;39;20057;-61
2022/05/06 05:00:25;;;;;;;40.20;25.50;;;;;;;10.55;83.74;102325.47;3597640;39;20436;-62
2022/05/06 05:02:51;;;;;;;39.53;23.85;;;;;;;10.55;82.90;102338.91;3598819;39;20058;-62
2022/05/06 05:05:17;;;;;;;41.35;23.60;;;;;;;10.56;83.14;102340.66;3596364;39;20121;-61
2022/05/06 05:07:42;;;;;;;46.58;23.63;;;;;;;10.54;82.91;102343.41;3598065;39;20056;-62
2022/05/06 05:10:08;;;;;;;32.80;22.48;;;;;;;10.55;82.82;102344.28;3595890;39;20341;-62
2022/05/06 05:12:35;;;;;;;42.28;24.80;;;;;;;10.52;83.22;102336.34;3596630;39;20057;-62
2022/05/06 05:15:02;;;;;;;43.97;24.42;;;;;;;10.57;83.89;102343.31;3597501;39;20119;-60
2022/05/06 05:17:27;;;;;;;45.10;25.67;;;;;;;10.59;83.99;102351.28;3589050;39;20060;-62
2022/05/06 05:19:53;;;;;;;54.25;25.95;;;;;;;10.62;84.10;102356.56;3595754;39;20054;-63
2022/05/06 05:22:19;;;;;;;39.33;24.80;;;;;;;10.53;84.22;102330.91;3585683;39;20048;-62
2022/05/06 05:24:47;;;;;;;39.65;25.55;;;;;;;10.71;83.61;102350.84;3595940;39;20063;-63
2022/05/06 05:27:13;;;;;;;38.30;25.30;;;;;;;10.79;84.59;102356.81;3596071;39;20071;-63
2022/05/06 05:29:40;;;;;;;38.38;22.75;;;;;;;10.82;83.04;102366.59;3599429;39;20083;-63
2022/05/06 05:32:08;;;;;;;38.67;26.10;;;;;;;10.81;83.92;102352.22;3599774;39;20337;-63
2022/05/06 05:34:33;;;;;;;43.97;24.10;;;;;;;10.83;83.85;102358.44;3598378;39;20048;-63
2022/05/06 05:36:59;;;;;;;48.65;24.65;;;;;;;10.82;83.33;102354.00;3596319;39;20444;-63
2022/05/06 05:39:25;;;;;;;44.80;24.52;;;;;;;10.68;83.36;102330.31;3596117;39;20055;-61
2022/05/06 05:41:50;;;;;;;40.10;24.80;;;;;;;10.91;83.71;102358.16;3595468;39;20394;-62
2022/05/06 05:49:44;;;;;;;49.20;26.42;;;;;;;11.02;83.60;102355.91;3596748;39;20047;-63
2022/05/06 05:52:11;;;;;;;46.17;27.50;;;;;;;11.03;83.13;102363.03;3594148;39;20083;-63
2022/05/06 05:54:38;;;;;;;46.50;27.30;;;;;;;11.02;83.97;102349.66;3598381;39;20055;-62
2022/05/06 05:57:06;;;;;;;61.97;28.73;;;;;;;11.09;83.97;102357.44;3596723;39;20055;-62
2022/05/06 05:59:33;;;;;;;55.58;29.15;;;;;;;11.11;83.94;102357.38;3599566;39;20059;-62
2022/05/06 06:02:01;;;;;;;49.05;28.95;;;;;;;11.16;84.26;102360.75;3593563;39;20054;-62
2022/05/06 06:04:27;;;;;;;49.20;28.73;;;;;;;11.18;83.78;102350.81;3596229;39;20055;-63
2022/05/06 06:06:52;;;;;;;63.42;30.00;;;;;;;11.22;83.10;102352.44;3589741;39;20298;-61
2022/05/06 06:09:22;;;;;;;54.53;29.23;;;;;;;11.26;83.64;102359.47;3594256;39;20787;-62
2022/05/06 06:11:49;;;;;;;52.05;29.75;;;;;;;11.35;83.76;102356.41;3595497;39;20101;-62
2022/05/06 06:14:16;;;;;;;54.08;30.73;;;;;;;11.42;84.13;102351.66;3594860;39;20075;-63
2022/05/06 06:16:42;;;;;;;50.10;30.23;;;;;;;11.52;83.58;102354.84;3596829;39;20718;-63
2022/05/06 06:19:08;;;;;;;54.72;31.17;;;;;;;11.58;83.26;102349.19;3594132;39;20055;-63
2022/05/06 06:21:34;;;;;;;52.60;29.98;;;;;;;11.55;82.04;102330.47;3594216;39;20055;-61
2022/05/06 06:24:00;;;;;;;53.08;29.58;;;;;;;11.64;82.79;102346.25;3593914;39;20075;-62
2022/05/06 06:26:25;;;;;;;49.28;30.23;;;;;;;11.68;82.75;102337.09;3594999;39;20086;-63
2022/05/06 06:28:51;;;;;;;55.10;33.30;;;;;;;11.75;83.31;102340.41;3591141;39;20035;-62
2022/05/06 06:31:16;;;;;;;54.20;30.60;;;;;;;11.85;82.34;102350.72;3594697;39;20322;-61
2022/05/06 06:33:42;;;;;;;56.53;32.95;;;;;;;11.78;82.58;102322.28;3594592;39;20048;-63
2022/05/06 06:36:08;;;;;;;48.83;30.70;;;;;;;11.96;81.86;102354.81;3594490;39;20373;-63
2022/05/06 06:38:35;;;;;;;44.70;29.48;;;;;;;12.02;80.65;102349.13;3594829;39;20062;-63
2022/05/06 06:41:01;;;;;;;47.13;30.63;;;;;;;11.97;80.39;102349.34;3594462;39;20087;-62
2022/05/06 06:43:27;;;;;;;49.88;31.83;;;;;;;11.99;81.80;102347.47;3595553;39;20044;-61
2022/05/06 06:45:53;;;;;;;52.47;32.83;;;;;;;12.07;82.17;102344.44;3596364;39;20066;-63
2022/05/06 06:48:19;;;;;;;55.65;31.63;;;;;;;12.10;81.01;102349.69;3596570;39;20063;-63
2022/05/06 06:50:44;;;;;;;55.17;33.15;;;;;;;12.15;81.53;102353.06;3595719;39;20378;-63
2022/05/06 06:53:10;;;;;;;53.35;33.60;;;;;;;12.19;82.53;102351.97;3600435;39;20067;-62
2022/05/06 06:55:36;;;;;;;53.85;33.97;;;;;;;12.34;82.31;102360.31;3602249;39;20055;-62
2022/05/06 06:58:02;;;;;;;58.42;32.72;;;;;;;12.39;81.79;102350.22;3596438;39;20059;-63
2022/05/06 07:00:28;;;;;;;50.35;32.38;;;;;;;12.48;81.67;102361.47;3597909;39;20044;-61
2022/05/06 07:02:56;;;;;;;42.65;29.33;;;;;;;12.51;80.98;102366.72;3601135;39;20051;-62
2022/05/06 07:05:22;;;;;;;40.33;27.75;;;;;;;12.55;79.00;102372.84;3595934;39;20071;-62
2022/05/06 07:13:18;;;;;;;46.20;28.35;;;;;;;12.58;78.46;102386.19;3593507;39;20071;-62
2022/05/06 07:15:44;;;;;;;42.15;28.00;;;;;;;12.56;78.48;102371.91;3594236;39;20068;-63
2022/05/06 07:18:10;;;;;;;41.92;28.17;;;;;;;12.65;78.19;102379.56;3593578;39;20075;-62
2022/05/06 07:20:36;;;;;;;38.92;26.88;;;;;;;12.63;78.41;102368.00;3594598;39;20067;-62
2022/05/06 07:23:03;;;;;;;40.45;26.70;;;;;;;12.71;78.07;102381.97;3594839;39;20039;-62
2022/05/06 07:25:30;;;;;;;42.65;28.73;;;;;;;12.67;78.32;102372.28;3595720;39;20121;-62
2022/05/06 07:27:56;;;;;;;40.72;27.83;;;;;;;12.83;78.11;102387.78;3598673;39;20043;-62
2022/05/06 07:30:22;;;;;;;42.53;28.75;;;;;;;12.88;77.89;102399.25;3596653;39;20055;-62
2022/05/06 07:32:48;;;;;;;40.88;29.15;;;;;;;12.88;77.80;102401.94;3596202;39;20089;-62
2022/05/06 07:35:13;;;;;;;42.30;28.27;;;;;;;12.87;78.40;102402.88;3596015;39;20063;-61
2022/05/06 07:37:39;;;;;;;43.17;29.27;;;;;;;12.90;78.06;102408.13;3594189;39;20446;-62
2022/05/06 07:40:06;;;;;;;44.28;29.50;;;;;;;12.91;77.72;102409.91;3597143;39;20063;-62
2022/05/06 07:42:33;;;;;;;43.88;28.90;;;;;;;12.94;77.35;102415.13;3596644;39;20066;-62
2022/05/06 07:44:59;;;;;;;42.95;27.85;;;;;;;12.89;77.38;102406.38;3596572;39;20043;-62
2022/05/06 07:47:24;;;;;;;42.58;28.85;;;;;;;12.92;77.63;102422.44;3595443;39;20074;-62
2022/05/06 07:49:50;;;;;;;41.55;29.33;;;;;;;12.91;77.68;102420.69;3594845;39;20074;-62
2022/05/06 07:52:16;;;;;;;42.80;29.27;;;;;;;12.91;77.51;102409.91;3597051;39;20302;-61
2022/05/06 07:54:41;;;;;;;42.85;28.27;;;;;;;13.04;76.92;102416.47;3595452;39;20059;-62
2022/05/06 07:57:07;;;;;;;42.63;28.17;;;;;;;13.07;77.29;102420.84;3594565;39;20055;-63
2022/05/06 07:59:33;;;;;;;44.80;29.58;;;;;;;13.14;77.56;102422.31;3596163;39;20048;-61
2022/05/06 08:04:48;;;;;;;46.35;30.30;;;;;;;13.23;77.21;102428.16;3596763;39;20132;-62
2022/05/06 08:07:14;;;;;;;44.47;29.60;;;;;;;13.28;76.91;102429.78;3583065;39;20528;-62
2022/05/06 08:09:41;;;;;;;45.30;29.15;;;;;;;13.32;76.63;102421.47;3600875;39;20361;-61
2022/05/06 08:12:07;;;;;;;45.13;29.95;;;;;;;13.36;77.05;102428.47;3598468;39;20078;-61
2022/05/06 08:14:33;;;;;;;45.85;29.77;;;;;;;13.36;76.85;102433.00;3599466;39;20040;-62
2022/05/06 08:16:59;;;;;;;44.47;30.15;;;;;;;13.34;76.51;102432.19;3599575;39;20077;-62
2022/05/06 08:19:26;;;;;;;42.65;29.52;;;;;;;13.38;76.96;102436.50;3598508;39;20052;-63
2022/05/06 08:21:52;;;;;;;41.22;27.65;;;;;;;13.38;76.39;102432.00;3598702;39;20063;-62
2022/05/06 08:24:19;;;;;;;53.08;35.85;;;;;;;13.39;75.89;102427.47;3598545;39;20064;-62
2022/05/06 08:26:46;;;;;;;51.70;36.45;;;;;;;13.44;75.83;102425.41;3599835;39;20051;-62
2022/05/06 08:29:13;;;;;;;41.10;27.85;;;;;;;13.54;75.20;102424.03;3596054;39;20132;-62
2022/05/06 08:31:39;;;;;;;39.85;27.65;;;;;;;13.66;74.39;102426.09;3596649;39;20148;-63
2022/05/06 08:34:10;;;;;;;39.50;27.50;;;;;;;13.72;74.84;102424.94;3593678;39;20062;-62
2022/05/06 08:36:45;;;;;;;40.35;27.33;;;;;;;13.81;74.24;102418.19;3595678;39;20063;-62
2022/05/06 08:39:12;;;;;;;37.85;27.48;;;;;;;13.87;74.19;102412.47;3595985;39;20088;-62
2022/05/06 08:41:39;;;;;;;39.33;28.10;;;;;;;13.96;73.07;102400.34;3584788;39;20379;-63
2022/05/06 08:52:43;;;;;;;32.88;24.58;;;;;;;14.51;71.04;102409.19;3594620;39;20129;-63
2022/05/06 08:55:09;;;;;;;31.40;23.92;;;;;;;14.79;70.31;102396.88;3596538;39;20062;-63
2022/05/06 08:57:36;;;;;;;28.67;22.25;;;;;;;15.33;66.97;102379.38;3594974;39;20357;-62
2022/05/06 09:00:06;;;;;;;28.45;22.10;;;;;;;16.04;65.67;102398.81;3586577;39;20127;-63
2022/05/06 09:02:32;;;;;;;27.40;22.48;;;;;;;16.57;64.73;102394.69;3599780;39;20093;-62
2022/05/06 09:04:58;;;;;;;28.67;22.40;;;;;;;16.77;62.20;102336.44;3596415;39;20070;-62
2022/05/06 09:07:25;;;;;;;31.00;24.40;;;;;;;17.50;61.19;102398.69;3597209;39;20309;-62
2022/05/06 09:10:09;;;;;;;32.03;24.50;;;;;;;17.89;60.20;102405.19;3595676;39;20083;-62
2022/05/06 09:12:41;;;;;;;25.73;19.85;;;;;;;18.19;57.48;102402.25;3598486;39;20404;-62
2022/05/06 09:17:53;;;;;;;27.17;20.95;;;;;;;18.74;57.72;102398.41;3594794;39;20041;-63
2022/05/06 09:20:21;;;;;;;24.83;19.75;;;;;;;19.03;57.71;102396.31;3598285;39;20060;-63
2022/05/06 09:22:50;;;;;;;22.98;18.20;;;;;;;19.28;54.38;102395.38;3595455;39;20087;-63
2022/05/06 09:25:36;;;;;;;22.85;18.50;;;;;;;19.41;54.51;102395.34;3595493;39;20445;-61
2022/05/06 09:28:04;;;;;;;22.10;17.13;;;;;;;19.75;53.20;102392.84;3594343;39;20048;-62
2022/05/06 09:30:29;;;;;;;23.10;18.92;;;;;;;19.84;53.37;102392.16;3595070;39;20059;-61
2022/05/06 09:32:55;;;;;;;27.90;21.23;;;;;;;19.81;52.16;102356.91;3595566;39;20158;-62
2022/05/06 09:35:27;;;;;;;19.20;16.00;;;;;;;20.10;51.52;102385.53;3598162;39;20048;-63
2022/05/06 09:37:52;;;;;;;23.13;19.42;;;;;;;20.26;52.90;102381.63;3597137;39;20087;-62
2022/05/06 09:40:30;;;;;;;20.00;16.58;;;;;;;20.51;49.66;102383.31;3595670;39;20047;-62
2022/05/06 09:43:00;;;;;;;59.45;43.42;;;;;;;20.74;52.15;102378.75;3592199;39;20054;-59
2022/05/06 09:45:34;;;;;;;20.70;16.95;;;;;;;20.96;50.08;102373.28;3598150;39;20059;-60
2022/05/06 09:48:03;;;;;;;18.65;15.20;;;;;;;20.98;49.63;102379.50;3594419;39;20501;-61
2022/05/06 09:50:38;;;;;;;22.27;17.45;;;;;;;21.16;50.04;102384.50;3595809;39;20121;-62
2022/05/06 09:53:08;;;;;;;18.52;16.05;;;;;;;21.26;50.35;102375.38;3595605;39;20060;-61
2022/05/06 09:55:39;;;;;;;16.38;14.57;;;;;;;21.43;48.52;102371.28;3595920;39;20062;-61
2022/05/06 09:58:06;;;;;;;19.23;15.50;;;;;;;21.41;48.28;102369.66;3597282;39;20061;-61
2022/05/06 10:00:33;;;;;;;18.38;15.20;;;;;;;21.61;48.06;102373.47;3595399;39;20043;-61
2022/05/06 10:03:00;;;;;;;17.85;15.07;;;;;;;22.01;48.46;102368.19;3595712;39;20054;-62
2022/05/06 10:05:29;;;;;;;18.50;14.52;;;;;;;22.21;47.43;102372.88;3598696;39;20052;-62
2022/05/06 10:08:03;;;;;;;16.58;12.68;;;;;;;22.19;45.52;102374.00;3600156;39;20386;-62
2022/05/06 10:10:40;;;;;;;14.85;13.02;;;;;;;22.24;45.92;102377.22;3591103;39;20045;-62
2022/05/06 10:13:22;;;;;;;15.30;13.02;;;;;;;22.22;47.08;102368.25;3596888;39;20117;-62
2022/05/06 10:15:53;;;;;;;13.07;11.15;;;;;;;22.14;46.14;102359.81;3601506;39;20056;-61
2022/05/06 10:18:35;;;;;;;14.60;11.88;;;;;;;22.06;45.27;102363.22;3599015;39;20117;-62
2022/05/06 10:21:05;;;;;;;14.75;11.43;;;;;;;22.19;45.81;102357.56;3596364;39;20120;-62
2022/05/06 10:23:53;;;;;;;12.13;10.70;;;;;;;22.26;45.64;102358.75;3597902;39;20087;-62
2022/05/06 10:26:33;;;;;;;13.88;11.13;;;;;;;22.37;46.63;102358.72;3596911;39;20087;-62
2022/05/06 10:34:32;;;;;;;15.02;12.18;;;;;;;22.98;44.43;102349.66;3602047;39;20058;-62
2022/05/06 10:37:02;;;;;;;15.20;13.20;;;;;;;23.17;44.31;102354.34;3599509;39;20051;-62
2022/05/06 10:39:35;;;;;;;15.82;13.43;;;;;;;23.42;43.62;102347.47;3633518;22;20083;-65
2022/05/06 10:42:17;;;;;;;48.65;42.65;;;;;;;23.31;43.80;102353.06;3598471;39;20047;-65
2022/05/06 10:44:50;;;;;;;17.10;13.30;;;;;;;23.39;43.38;102336.78;3601364;39;20105;-67
2022/05/06 10:47:16;;;;;;;13.80;12.30;;;;;;;23.52;42.44;102336.50;3597632;39;20326;-66
2022/05/06 10:49:43;;;;;;;13.00;11.65;;;;;;;23.58;42.80;102336.78;3597504;39;20071;-66
2022/05/06 10:52:20;;;;;;;10.77;9.68;;;;;;;23.59;42.37;102332.16;3592650;39;20129;-65
2022/05/06 10:54:55;;;;;;;10.85;9.73;;;;;;;23.62;42.81;102320.91;3594842;39;20256;-65
2022/05/06 10:57:24;;;;;;;12.02;10.73;;;;;;;23.76;40.95;102320.50;3596419;39;20107;-66
2022/05/06 11:00:06;;;;;;;13.32;11.10;;;;;;;23.78;39.98;102331.34;3598621;39;20051;-65
2022/05/06 11:02:38;;;;;;;13.07;11.70;;;;;;;23.78;41.63;102321.22;3598432;39;20066;-66
2022/05/06 11:05:12;;;;;;;11.23;9.98;;;;;;;23.77;40.99;102326.88;3600125;39;20047;-66
2022/05/06 11:07:41;;;;;;;13.50;11.52;;;;;;;23.38;42.07;102327.69;3597962;39;20391;-67
2022/05/06 11:10:25;;;;;;;12.38;10.80;;;;;;;22.97;42.13;102330.59;3598307;39;20077;-67
2022/05/06 11:12:59;;;;;;;11.15;9.93;;;;;;;22.79;42.99;102323.00;3597775;39;20055;-66
2022/05/06 11:15:30;;;;;;;12.00;10.60;;;;;;;22.65;43.69;102320.63;3595889;39;21603;-66
2022/05/06 11:17:59;;;;;;;12.70;11.05;;;;;;;22.48;43.93;102311.16;3596316;39;20128;-67
2022/05/06 11:20:28;;;;;;;11.45;10.02;;;;;;;22.53;42.72;102316.25;3595951;39;20306;-66
2022/05/06 11:23:07;;;;;;;10.55;9.05;;;;;;;22.47;42.86;102317.66;3597653;39;20043;-67
2022/05/06 11:25:50;;;;;;;12.63;9.93;;;;;;;22.16;43.53;102311.28;3594921;39;20052;-67
2022/05/06 11:28:18;;;;;;;;;;;;;;;22.44;43.16;102301.47;3596847;39;20056;-67
2022/05/06 11:30:47;;;;;;;9.25;8.15;;;;;;;22.99;43.46;102295.66;3597603;39;19964;-67
2022/05/06 11:33:25;;;;;;;10.77;7.55;;;;;;;23.54;39.57;102302.41;3597012;39;20075;-66
2022/05/06 11:36:05;;;;;;;9.50;7.63;;;;;;;23.47;39.16;102256.44;3596950;39;20385;-67
2022/05/06 11:38:36;;;;;;;9.27;8.25;;;;;;;23.92;39.40;102288.84;3595806;39;20460;-67
2022/05/06 11:41:14;;;;;;;7.70;6.90;;;;;;;24.23;39.55;102295.88;3596664;39;20060;-67
2022/05/06 11:43:42;;;;;;;10.13;7.18;;;;;;;23.82;39.18;102295.22;3595767;39;20055;-67
2022/05/06 11:49:06;;;;;;;8.45;7.55;;;;;;;23.03;40.48;102288.91;3593972;39;20112;-67
2022/05/06 11:51:38;;;;;;;10.30;8.40;;;;;;;22.81;41.02;102282.59;3594208;39;20048;-66
2022/05/06 11:54:07;;;;;;;10.43;7.60;;;;;;;23.43;39.82;102282.44;3593747;39;20464;-67
2022/05/06 11:56:34;;;;;;;9.05;7.30;;;;;;;24.01;39.62;102276.97;3596010;39;20071;-66